sensor_id;sensor_type;location;lat;lon;timestamp;P1;durP1;ratioP1;P2;durP2;ratioP2
17345;SDS011;8790;53.590;10.002;2023-07-13T00:02:04;5.93;;;3.80;;
17345;SDS011;8790;53.590;10.002;2023-07-13T00:04:36;6.90;;;3.75;;
17345;SDS011;8790;53.590;10.002;2023-07-13T00:07:08;7.50;;;4.10;;
17345;SDS011;8790;53.590;10.002;2023-07-13T00:09:40;5.75;;;3.60;;
17345;SDS011;8790;53.590;10.002;2023-07-13T00:12:23;5.78;;;4.03;;
17345;SDS011;8790;53.590;10.002;2023-07-13T00:14:57;5.85;;;4.25;;
17345;SDS011;8790;53.590;10.002;2023-07-13T00:17:31;5.78;;;3.80;;
17345;SDS011;8790;53.590;10.002;2023-07-13T00:20:02;6.97;;;3.85;;
17345;SDS011;8790;53.590;10.002;2023-07-13T00:22:35;4.90;;;4.00;;
17345;SDS011;8790;53.590;10.002;2023-07-13T00:25:07;6.75;;;4.15;;
17345;SDS011;8790;53.590;10.002;2023-07-13T00:27:42;9.85;;;4.07;;
17345;SDS011;8790;53.590;10.002;2023-07-13T00:30:14;5.10;;;3.83;;
17345;SDS011;8790;53.590;10.002;2023-07-13T00:32:46;5.10;;;3.97;;
17345;SDS011;8790;53.590;10.002;2023-07-13T00:35:18;6.28;;;3.97;;
17345;SDS011;8790;53.590;10.002;2023-07-13T00:37:50;5.07;;;3.90;;
17345;SDS011;8790;53.590;10.002;2023-07-13T00:40:21;5.38;;;3.85;;
17345;SDS011;8790;53.590;10.002;2023-07-13T00:42:56;4.50;;;3.60;;
17345;SDS011;8790;53.590;10.002;2023-07-13T00:48:37;5.00;;;3.58;;
17345;SDS011;8790;53.590;10.002;2023-07-13T00:51:10;5.25;;;3.38;;
17345;SDS011;8790;53.590;10.002;2023-07-13T00:53:44;5.05;;;3.17;;
17345;SDS011;8790;53.590;10.002;2023-07-13T00:56:16;3.65;;;3.17;;
17345;SDS011;8790;53.590;10.002;2023-07-13T00:58:49;4.80;;;2.92;;
17345;SDS011;8790;53.590;10.002;2023-07-13T01:01:22;4.97;;;3.37;;
17345;SDS011;8790;53.590;10.002;2023-07-13T01:03:53;4.80;;;3.30;;
17345;SDS011;8790;53.590;10.002;2023-07-13T01:06:27;4.32;;;2.95;;
17345;SDS011;8790;53.590;10.002;2023-07-13T01:08:59;3.72;;;2.70;;
17345;SDS011;8790;53.590;10.002;2023-07-13T01:11:31;4.65;;;3.25;;
17345;SDS011;8790;53.590;10.002;2023-07-13T01:14:04;3.63;;;3.15;;
17345;SDS011;8790;53.590;10.002;2023-07-13T01:16:36;5.57;;;3.47;;
17345;SDS011;8790;53.590;10.002;2023-07-13T01:19:12;3.75;;;3.45;;
17345;SDS011;8790;53.590;10.002;2023-07-13T01:22:08;5.95;;;3.55;;
17345;SDS011;8790;53.590;10.002;2023-07-13T01:24:42;7.32;;;3.45;;
17345;SDS011;8790;53.590;10.002;2023-07-13T01:27:17;5.18;;;3.50;;
17345;SDS011;8790;53.590;10.002;2023-07-13T01:29:53;4.80;;;3.30;;
17345;SDS011;8790;53.590;10.002;2023-07-13T01:32:34;4.82;;;3.30;;
17345;SDS011;8790;53.590;10.002;2023-07-13T01:35:07;4.97;;;3.55;;
17345;SDS011;8790;53.590;10.002;2023-07-13T01:37:40;4.72;;;3.40;;
17345;SDS011;8790;53.590;10.002;2023-07-13T01:40:12;5.70;;;4.10;;
17345;SDS011;8790;53.590;10.002;2023-07-13T01:42:44;5.20;;;4.00;;
17345;SDS011;8790;53.590;10.002;2023-07-13T01:45:15;4.80;;;3.67;;
17345;SDS011;8790;53.590;10.002;2023-07-13T01:47:47;4.45;;;3.75;;
17345;SDS011;8790;53.590;10.002;2023-07-13T01:50:19;6.93;;;3.60;;
17345;SDS011;8790;53.590;10.002;2023-07-13T01:52:52;4.30;;;3.85;;
17345;SDS011;8790;53.590;10.002;2023-07-13T01:55:24;5.78;;;4.07;;
17345;SDS011;8790;53.590;10.002;2023-07-13T01:57:55;4.95;;;4.00;;
17345;SDS011;8790;53.590;10.002;2023-07-13T02:00:27;4.32;;;3.70;;
17345;SDS011;8790;53.590;10.002;2023-07-13T02:02:59;5.30;;;4.10;;
17345;SDS011;8790;53.590;10.002;2023-07-13T02:05:31;5.63;;;3.90;;
17345;SDS011;8790;53.590;10.002;2023-07-13T02:08:04;5.60;;;4.05;;
17345;SDS011;8790;53.590;10.002;2023-07-13T02:10:36;4.88;;;3.90;;
17345;SDS011;8790;53.590;10.002;2023-07-13T02:13:08;6.53;;;4.18;;
17345;SDS011;8790;53.590;10.002;2023-07-13T02:15:40;4.90;;;4.22;;
17345;SDS011;8790;53.590;10.002;2023-07-13T02:18:11;6.78;;;4.07;;
17345;SDS011;8790;53.590;10.002;2023-07-13T02:20:47;5.35;;;4.50;;
17345;SDS011;8790;53.590;10.002;2023-07-13T02:23:20;5.18;;;4.40;;
17345;SDS011;8790;53.590;10.002;2023-07-13T02:25:54;5.68;;;4.18;;
17345;SDS011;8790;53.590;10.002;2023-07-13T02:28:26;5.77;;;4.10;;
17345;SDS011;8790;53.590;10.002;2023-07-13T02:31:03;5.60;;;4.10;;
17345;SDS011;8790;53.590;10.002;2023-07-13T02:33:36;4.60;;;3.63;;
17345;SDS011;8790;53.590;10.002;2023-07-13T02:36:08;5.07;;;4.50;;
17345;SDS011;8790;53.590;10.002;2023-07-13T02:38:42;4.50;;;4.10;;
17345;SDS011;8790;53.590;10.002;2023-07-13T02:41:13;5.15;;;4.07;;
17345;SDS011;8790;53.590;10.002;2023-07-13T02:43:45;4.55;;;4.13;;
17345;SDS011;8790;53.590;10.002;2023-07-13T02:46:18;5.88;;;4.40;;
17345;SDS011;8790;53.590;10.002;2023-07-13T02:48:49;7.25;;;5.00;;
17345;SDS011;8790;53.590;10.002;2023-07-13T02:51:23;5.90;;;4.10;;
17345;SDS011;8790;53.590;10.002;2023-07-13T02:53:56;4.35;;;3.95;;
17345;SDS011;8790;53.590;10.002;2023-07-13T02:56:28;5.22;;;4.15;;
17345;SDS011;8790;53.590;10.002;2023-07-13T02:59:02;5.13;;;4.18;;
17345;SDS011;8790;53.590;10.002;2023-07-13T03:01:33;6.82;;;4.18;;
17345;SDS011;8790;53.590;10.002;2023-07-13T03:04:06;5.00;;;4.00;;
17345;SDS011;8790;53.590;10.002;2023-07-13T03:06:39;5.07;;;4.03;;
17345;SDS011;8790;53.590;10.002;2023-07-13T03:09:12;6.03;;;4.13;;
17345;SDS011;8790;53.590;10.002;2023-07-13T03:11:47;5.37;;;3.90;;
17345;SDS011;8790;53.590;10.002;2023-07-13T03:14:27;4.80;;;4.30;;
17345;SDS011;8790;53.590;10.002;2023-07-13T03:16:59;6.25;;;4.30;;
17345;SDS011;8790;53.590;10.002;2023-07-13T03:19:34;5.60;;;4.30;;
17345;SDS011;8790;53.590;10.002;2023-07-13T03:22:07;4.68;;;4.20;;
17345;SDS011;8790;53.590;10.002;2023-07-13T03:24:40;5.57;;;4.33;;
17345;SDS011;8790;53.590;10.002;2023-07-13T03:27:12;5.75;;;4.30;;
17345;SDS011;8790;53.590;10.002;2023-07-13T03:29:47;5.90;;;4.00;;
17345;SDS011;8790;53.590;10.002;2023-07-13T03:32:21;7.63;;;4.27;;
17345;SDS011;8790;53.590;10.002;2023-07-13T03:34:53;5.22;;;4.00;;
17345;SDS011;8790;53.590;10.002;2023-07-13T03:37:26;6.93;;;4.43;;
17345;SDS011;8790;53.590;10.002;2023-07-13T03:39:59;5.72;;;4.20;;
17345;SDS011;8790;53.590;10.002;2023-07-13T03:42:31;4.55;;;3.97;;
17345;SDS011;8790;53.590;10.002;2023-07-13T03:45:03;6.35;;;3.75;;
17345;SDS011;8790;53.590;10.002;2023-07-13T03:47:37;5.20;;;3.88;;
17345;SDS011;8790;53.590;10.002;2023-07-13T03:50:09;6.07;;;4.03;;
17345;SDS011;8790;53.590;10.002;2023-07-13T03:52:41;4.80;;;4.07;;
17345;SDS011;8790;53.590;10.002;2023-07-13T03:55:14;4.82;;;3.60;;
17345;SDS011;8790;53.590;10.002;2023-07-13T03:57:45;5.43;;;4.07;;
17345;SDS011;8790;53.590;10.002;2023-07-13T04:00:18;3.83;;;3.50;;
17345;SDS011;8790;53.590;10.002;2023-07-13T04:02:50;5.57;;;3.80;;
17345;SDS011;8790;53.590;10.002;2023-07-13T04:05:22;5.50;;;3.47;;
17345;SDS011;8790;53.590;10.002;2023-07-13T04:07:54;6.67;;;3.50;;
17345;SDS011;8790;53.590;10.002;2023-07-13T04:10:27;6.63;;;3.55;;
17345;SDS011;8790;53.590;10.002;2023-07-13T04:13:00;5.10;;;3.53;;
17345;SDS011;8790;53.590;10.002;2023-07-13T04:15:32;3.85;;;2.85;;
17345;SDS011;8790;53.590;10.002;2023-07-13T04:18:04;9.55;;;3.88;;
17345;SDS011;8790;53.590;10.002;2023-07-13T04:20:36;6.37;;;3.27;;
17345;SDS011;8790;53.590;10.002;2023-07-13T04:23:08;6.20;;;3.10;;
17345;SDS011;8790;53.590;10.002;2023-07-13T04:25:44;7.03;;;3.70;;
17345;SDS011;8790;53.590;10.002;2023-07-13T04:28:16;5.90;;;3.27;;
17345;SDS011;8790;53.590;10.002;2023-07-13T04:30:48;5.18;;;3.65;;
17345;SDS011;8790;53.590;10.002;2023-07-13T04:33:20;5.47;;;3.42;;
17345;SDS011;8790;53.590;10.002;2023-07-13T04:35:53;7.53;;;3.85;;
17345;SDS011;8790;53.590;10.002;2023-07-13T04:38:28;6.38;;;3.72;;
17345;SDS011;8790;53.590;10.002;2023-07-13T04:41:04;6.77;;;3.67;;
17345;SDS011;8790;53.590;10.002;2023-07-13T04:43:37;6.60;;;3.55;;
17345;SDS011;8790;53.590;10.002;2023-07-13T04:46:10;5.85;;;3.75;;
17345;SDS011;8790;53.590;10.002;2023-07-13T04:48:45;7.60;;;3.90;;
17345;SDS011;8790;53.590;10.002;2023-07-13T04:51:17;8.45;;;3.75;;
17345;SDS011;8790;53.590;10.002;2023-07-13T04:53:49;5.72;;;3.55;;
17345;SDS011;8790;53.590;10.002;2023-07-13T04:56:22;6.73;;;3.97;;
17345;SDS011;8790;53.590;10.002;2023-07-13T04:58:54;7.97;;;3.80;;
17345;SDS011;8790;53.590;10.002;2023-07-13T05:01:26;6.65;;;3.53;;
17345;SDS011;8790;53.590;10.002;2023-07-13T05:03:57;5.28;;;3.63;;
17345;SDS011;8790;53.590;10.002;2023-07-13T05:06:29;5.43;;;3.33;;
17345;SDS011;8790;53.590;10.002;2023-07-13T05:09:01;6.03;;;3.70;;
17345;SDS011;8790;53.590;10.002;2023-07-13T05:11:34;6.20;;;3.37;;
17345;SDS011;8790;53.590;10.002;2023-07-13T05:14:06;6.90;;;3.70;;
17345;SDS011;8790;53.590;10.002;2023-07-13T05:16:39;10.23;;;3.60;;
17345;SDS011;8790;53.590;10.002;2023-07-13T05:19:11;7.82;;;3.80;;
17345;SDS011;8790;53.590;10.002;2023-07-13T05:21:43;7.10;;;3.92;;
17345;SDS011;8790;53.590;10.002;2023-07-13T05:24:15;6.23;;;4.07;;
17345;SDS011;8790;53.590;10.002;2023-07-13T05:26:48;7.57;;;4.20;;
17345;SDS011;8790;53.590;10.002;2023-07-13T05:29:20;8.20;;;4.37;;
17345;SDS011;8790;53.590;10.002;2023-07-13T05:31:52;5.93;;;3.85;;
17345;SDS011;8790;53.590;10.002;2023-07-13T05:34:24;7.32;;;4.10;;
17345;SDS011;8790;53.590;10.002;2023-07-13T05:36:56;7.83;;;4.00;;
17345;SDS011;8790;53.590;10.002;2023-07-13T05:39:28;7.40;;;3.92;;
17345;SDS011;8790;53.590;10.002;2023-07-13T05:42:01;6.22;;;3.90;;
17345;SDS011;8790;53.590;10.002;2023-07-13T05:44:33;9.27;;;3.93;;
17345;SDS011;8790;53.590;10.002;2023-07-13T05:47:05;9.20;;;3.95;;
17345;SDS011;8790;53.590;10.002;2023-07-13T05:49:37;8.67;;;4.20;;
17345;SDS011;8790;53.590;10.002;2023-07-13T05:52:09;11.05;;;4.38;;
17345;SDS011;8790;53.590;10.002;2023-07-13T05:54:40;9.55;;;4.40;;
17345;SDS011;8790;53.590;10.002;2023-07-13T05:57:13;7.57;;;4.30;;
17345;SDS011;8790;53.590;10.002;2023-07-13T05:59:45;12.35;;;4.65;;
17345;SDS011;8790;53.590;10.002;2023-07-13T06:02:17;11.52;;;4.50;;
17345;SDS011;8790;53.590;10.002;2023-07-13T06:04:49;8.73;;;4.30;;
17345;SDS011;8790;53.590;10.002;2023-07-13T06:07:20;7.88;;;4.32;;
17345;SDS011;8790;53.590;10.002;2023-07-13T06:09:52;9.50;;;4.60;;
17345;SDS011;8790;53.590;10.002;2023-07-13T06:12:25;12.43;;;4.75;;
17345;SDS011;8790;53.590;10.002;2023-07-13T06:14:57;10.80;;;4.07;;
17345;SDS011;8790;53.590;10.002;2023-07-13T06:17:29;10.00;;;4.80;;
17345;SDS011;8790;53.590;10.002;2023-07-13T06:20:00;10.10;;;4.50;;
17345;SDS011;8790;53.590;10.002;2023-07-13T06:22:32;6.55;;;4.05;;
17345;SDS011;8790;53.590;10.002;2023-07-13T06:25:04;10.88;;;4.00;;
17345;SDS011;8790;53.590;10.002;2023-07-13T06:27:38;7.75;;;3.60;;
17345;SDS011;8790;53.590;10.002;2023-07-13T06:30:10;9.93;;;3.85;;
17345;SDS011;8790;53.590;10.002;2023-07-13T06:32:42;9.35;;;3.90;;
17345;SDS011;8790;53.590;10.002;2023-07-13T06:35:14;10.25;;;4.43;;
17345;SDS011;8790;53.590;10.002;2023-07-13T06:37:46;6.20;;;3.90;;
17345;SDS011;8790;53.590;10.002;2023-07-13T06:40:18;9.73;;;4.43;;
17345;SDS011;8790;53.590;10.002;2023-07-13T06:42:50;5.80;;;4.07;;
17345;SDS011;8790;53.590;10.002;2023-07-13T06:45:22;5.55;;;3.60;;
17345;SDS011;8790;53.590;10.002;2023-07-13T06:47:54;9.07;;;3.80;;
17345;SDS011;8790;53.590;10.002;2023-07-13T06:50:28;9.73;;;4.00;;
17345;SDS011;8790;53.590;10.002;2023-07-13T06:53:01;13.07;;;3.83;;
17345;SDS011;8790;53.590;10.002;2023-07-13T06:55:33;12.23;;;4.03;;
17345;SDS011;8790;53.590;10.002;2023-07-13T06:58:06;8.90;;;3.35;;
17345;SDS011;8790;53.590;10.002;2023-07-13T07:00:38;7.20;;;3.43;;
17345;SDS011;8790;53.590;10.002;2023-07-13T07:03:10;7.83;;;3.63;;
17345;SDS011;8790;53.590;10.002;2023-07-13T07:05:42;6.97;;;3.80;;
17345;SDS011;8790;53.590;10.002;2023-07-13T07:08:14;8.45;;;3.42;;
17345;SDS011;8790;53.590;10.002;2023-07-13T07:10:46;10.35;;;3.85;;
17345;SDS011;8790;53.590;10.002;2023-07-13T07:13:22;7.67;;;3.47;;
17345;SDS011;8790;53.590;10.002;2023-07-13T07:15:54;9.45;;;3.50;;
17345;SDS011;8790;53.590;10.002;2023-07-13T07:18:26;6.80;;;3.60;;
17345;SDS011;8790;53.590;10.002;2023-07-13T07:20:57;6.83;;;3.30;;
17345;SDS011;8790;53.590;10.002;2023-07-13T07:23:29;8.67;;;3.13;;
17345;SDS011;8790;53.590;10.002;2023-07-13T07:26:01;8.00;;;3.67;;
17345;SDS011;8790;53.590;10.002;2023-07-13T07:28:34;7.25;;;3.50;;
17345;SDS011;8790;53.590;10.002;2023-07-13T07:31:06;7.53;;;3.28;;
17345;SDS011;8790;53.590;10.002;2023-07-13T07:33:37;5.85;;;2.90;;
17345;SDS011;8790;53.590;10.002;2023-07-13T07:36:09;6.15;;;2.78;;
17345;SDS011;8790;53.590;10.002;2023-07-13T07:38:41;7.00;;;2.60;;
17345;SDS011;8790;53.590;10.002;2023-07-13T07:41:13;12.73;;;4.68;;
17345;SDS011;8790;53.590;10.002;2023-07-13T07:43:46;7.53;;;3.50;;
17345;SDS011;8790;53.590;10.002;2023-07-13T07:46:18;6.18;;;3.45;;
17345;SDS011;8790;53.590;10.002;2023-07-13T07:48:49;9.55;;;4.03;;
17345;SDS011;8790;53.590;10.002;2023-07-13T07:51:21;6.13;;;3.20;;
17345;SDS011;8790;53.590;10.002;2023-07-13T07:53:53;6.40;;;3.33;;
17345;SDS011;8790;53.590;10.002;2023-07-13T07:56:25;10.20;;;3.42;;
17345;SDS011;8790;53.590;10.002;2023-07-13T07:58:58;5.97;;;3.55;;
17345;SDS011;8790;53.590;10.002;2023-07-13T08:01:30;6.68;;;3.15;;
17345;SDS011;8790;53.590;10.002;2023-07-13T08:04:01;8.68;;;3.50;;
17345;SDS011;8790;53.590;10.002;2023-07-13T08:06:33;7.57;;;3.17;;
17345;SDS011;8790;53.590;10.002;2023-07-13T08:09:05;8.55;;;3.08;;
17345;SDS011;8790;53.590;10.002;2023-07-13T08:11:38;7.43;;;3.55;;
17345;SDS011;8790;53.590;10.002;2023-07-13T08:14:11;6.68;;;3.10;;
17345;SDS011;8790;53.590;10.002;2023-07-13T08:16:42;6.88;;;3.05;;
17345;SDS011;8790;53.590;10.002;2023-07-13T08:19:14;6.20;;;3.15;;
17345;SDS011;8790;53.590;10.002;2023-07-13T08:21:46;6.70;;;3.30;;
17345;SDS011;8790;53.590;10.002;2023-07-13T08:24:21;8.27;;;3.35;;
17345;SDS011;8790;53.590;10.002;2023-07-13T08:26:53;9.07;;;2.97;;
17345;SDS011;8790;53.590;10.002;2023-07-13T08:29:26;6.05;;;3.17;;
17345;SDS011;8790;53.590;10.002;2023-07-13T08:31:58;5.57;;;3.35;;
17345;SDS011;8790;53.590;10.002;2023-07-13T08:34:29;6.60;;;3.58;;
17345;SDS011;8790;53.590;10.002;2023-07-13T08:37:01;8.38;;;3.55;;
17345;SDS011;8790;53.590;10.002;2023-07-13T08:39:33;6.70;;;3.28;;
17345;SDS011;8790;53.590;10.002;2023-07-13T08:42:07;4.72;;;2.90;;
17345;SDS011;8790;53.590;10.002;2023-07-13T08:44:48;6.10;;;2.83;;
17345;SDS011;8790;53.590;10.002;2023-07-13T08:47:25;6.82;;;3.20;;
17345;SDS011;8790;53.590;10.002;2023-07-13T08:50:01;6.07;;;2.58;;
17345;SDS011;8790;53.590;10.002;2023-07-13T08:52:34;8.70;;;3.08;;
17345;SDS011;8790;53.590;10.002;2023-07-13T08:55:11;5.57;;;2.65;;
17345;SDS011;8790;53.590;10.002;2023-07-13T08:57:45;5.32;;;2.65;;
17345;SDS011;8790;53.590;10.002;2023-07-13T09:00:22;6.10;;;2.88;;
17345;SDS011;8790;53.590;10.002;2023-07-13T09:02:56;4.25;;;2.70;;
17345;SDS011;8790;53.590;10.002;2023-07-13T09:05:33;8.10;;;3.58;;
17345;SDS011;8790;53.590;10.002;2023-07-13T09:08:14;7.38;;;3.33;;
17345;SDS011;8790;53.590;10.002;2023-07-13T09:11:06;5.97;;;2.67;;
17345;SDS011;8790;53.590;10.002;2023-07-13T09:14:00;6.82;;;2.38;;
17345;SDS011;8790;53.590;10.002;2023-07-13T09:16:38;4.78;;;2.65;;
17345;SDS011;8790;53.590;10.002;2023-07-13T09:19:13;5.45;;;2.92;;
17345;SDS011;8790;53.590;10.002;2023-07-13T09:21:52;4.93;;;2.47;;
17345;SDS011;8790;53.590;10.002;2023-07-13T09:24:29;6.32;;;2.40;;
17345;SDS011;8790;53.590;10.002;2023-07-13T09:27:13;3.85;;;2.30;;
17345;SDS011;8790;53.590;10.002;2023-07-13T09:29:48;6.00;;;2.28;;
17345;SDS011;8790;53.590;10.002;2023-07-13T09:32:27;7.07;;;2.50;;
17345;SDS011;8790;53.590;10.002;2023-07-13T09:35:00;6.78;;;2.83;;
17345;SDS011;8790;53.590;10.002;2023-07-13T09:37:33;5.55;;;2.65;;
17345;SDS011;8790;53.590;10.002;2023-07-13T09:40:08;5.72;;;2.60;;
17345;SDS011;8790;53.590;10.002;2023-07-13T09:42:46;6.90;;;2.58;;
17345;SDS011;8790;53.590;10.002;2023-07-13T09:45:26;6.45;;;2.75;;
17345;SDS011;8790;53.590;10.002;2023-07-13T09:48:03;6.00;;;2.33;;
17345;SDS011;8790;53.590;10.002;2023-07-13T09:50:38;7.68;;;2.60;;
17345;SDS011;8790;53.590;10.002;2023-07-13T09:53:11;5.60;;;2.70;;
17345;SDS011;8790;53.590;10.002;2023-07-13T09:55:45;6.68;;;2.75;;
17345;SDS011;8790;53.590;10.002;2023-07-13T09:58:19;5.15;;;2.70;;
17345;SDS011;8790;53.590;10.002;2023-07-13T10:00:54;5.82;;;2.70;;
17345;SDS011;8790;53.590;10.002;2023-07-13T10:03:29;3.88;;;2.80;;
17345;SDS011;8790;53.590;10.002;2023-07-13T10:06:11;7.47;;;2.30;;
17345;SDS011;8790;53.590;10.002;2023-07-13T10:08:44;6.80;;;3.03;;
17345;SDS011;8790;53.590;10.002;2023-07-13T10:11:18;4.63;;;2.78;;
17345;SDS011;8790;53.590;10.002;2023-07-13T10:13:52;5.03;;;2.83;;
17345;SDS011;8790;53.590;10.002;2023-07-13T10:16:27;5.38;;;2.63;;
17345;SDS011;8790;53.590;10.002;2023-07-13T10:19:05;4.15;;;2.88;;
17345;SDS011;8790;53.590;10.002;2023-07-13T10:21:47;5.55;;;2.40;;
17345;SDS011;8790;53.590;10.002;2023-07-13T10:24:25;5.25;;;2.90;;
17345;SDS011;8790;53.590;10.002;2023-07-13T10:27:00;5.85;;;2.65;;
17345;SDS011;8790;53.590;10.002;2023-07-13T10:29:35;4.55;;;2.38;;
17345;SDS011;8790;53.590;10.002;2023-07-13T10:32:09;6.10;;;2.25;;
17345;SDS011;8790;53.590;10.002;2023-07-13T10:34:47;5.32;;;2.70;;
17345;SDS011;8790;53.590;10.002;2023-07-13T10:37:22;4.85;;;2.30;;
17345;SDS011;8790;53.590;10.002;2023-07-13T10:39:57;4.28;;;2.30;;
17345;SDS011;8790;53.590;10.002;2023-07-13T10:42:32;4.50;;;2.42;;
17345;SDS011;8790;53.590;10.002;2023-07-13T10:45:11;4.80;;;2.47;;
17345;SDS011;8790;53.590;10.002;2023-07-13T10:47:45;6.43;;;2.20;;
17345;SDS011;8790;53.590;10.002;2023-07-13T10:50:20;4.03;;;2.63;;
17345;SDS011;8790;53.590;10.002;2023-07-13T10:52:53;4.07;;;2.70;;
17345;SDS011;8790;53.590;10.002;2023-07-13T10:55:32;5.47;;;2.30;;
17345;SDS011;8790;53.590;10.002;2023-07-13T10:58:13;4.53;;;2.13;;
17345;SDS011;8790;53.590;10.002;2023-07-13T11:00:51;4.13;;;2.20;;
17345;SDS011;8790;53.590;10.002;2023-07-13T11:03:29;5.25;;;2.15;;
17345;SDS011;8790;53.590;10.002;2023-07-13T11:06:07;2.38;;;2.00;;
17345;SDS011;8790;53.590;10.002;2023-07-13T11:08:50;7.10;;;2.70;;
17345;SDS011;8790;53.590;10.002;2023-07-13T11:11:34;4.45;;;2.05;;
17345;SDS011;8790;53.590;10.002;2023-07-13T11:16:59;2.80;;;2.10;;
17345;SDS011;8790;53.590;10.002;2023-07-13T11:20:21;5.35;;;2.40;;
17345;SDS011;8790;53.590;10.002;2023-07-13T11:26:02;6.22;;;2.47;;
17345;SDS011;8790;53.590;10.002;2023-07-13T11:28:34;3.88;;;2.17;;
17345;SDS011;8790;53.590;10.002;2023-07-13T11:31:14;4.13;;;2.28;;
17345;SDS011;8790;53.590;10.002;2023-07-13T11:33:54;5.72;;;2.58;;
17345;SDS011;8790;53.590;10.002;2023-07-13T11:36:30;4.32;;;2.33;;
17345;SDS011;8790;53.590;10.002;2023-07-13T11:39:11;3.15;;;2.20;;
17345;SDS011;8790;53.590;10.002;2023-07-13T11:41:49;2.83;;;2.05;;
17345;SDS011;8790;53.590;10.002;2023-07-13T11:44:24;3.05;;;1.98;;
17345;SDS011;8790;53.590;10.002;2023-07-13T11:46:58;4.22;;;2.20;;
17345;SDS011;8790;53.590;10.002;2023-07-13T11:49:41;4.80;;;2.22;;
17345;SDS011;8790;53.590;10.002;2023-07-13T11:52:15;4.15;;;2.08;;
17345;SDS011;8790;53.590;10.002;2023-07-13T11:54:54;3.65;;;2.15;;
17345;SDS011;8790;53.590;10.002;2023-07-13T11:57:29;4.90;;;2.20;;
17345;SDS011;8790;53.590;10.002;2023-07-13T12:00:04;3.83;;;1.90;;
17345;SDS011;8790;53.590;10.002;2023-07-13T12:02:43;3.65;;;2.10;;
17345;SDS011;8790;53.590;10.002;2023-07-13T12:05:18;4.65;;;1.92;;
17345;SDS011;8790;53.590;10.002;2023-07-13T12:07:50;4.20;;;2.38;;
17345;SDS011;8790;53.590;10.002;2023-07-13T12:10:24;3.75;;;2.15;;
17345;SDS011;8790;53.590;10.002;2023-07-13T12:13:00;4.15;;;2.10;;
17345;SDS011;8790;53.590;10.002;2023-07-13T12:15:36;9.80;;;2.30;;
17345;SDS011;8790;53.590;10.002;2023-07-13T12:18:11;5.95;;;2.50;;
17345;SDS011;8790;53.590;10.002;2023-07-13T12:20:47;5.32;;;2.33;;
17345;SDS011;8790;53.590;10.002;2023-07-13T12:23:20;5.15;;;2.30;;
17345;SDS011;8790;53.590;10.002;2023-07-13T12:25:55;6.60;;;2.42;;
17345;SDS011;8790;53.590;10.002;2023-07-13T12:28:32;7.10;;;3.72;;
17345;SDS011;8790;53.590;10.002;2023-07-13T12:31:05;10.23;;;3.00;;
17345;SDS011;8790;53.590;10.002;2023-07-13T12:33:56;5.80;;;2.67;;
17345;SDS011;8790;53.590;10.002;2023-07-13T12:36:35;4.47;;;2.60;;
17345;SDS011;8790;53.590;10.002;2023-07-13T12:39:13;5.20;;;2.40;;
17345;SDS011;8790;53.590;10.002;2023-07-13T12:41:48;5.68;;;2.40;;
17345;SDS011;8790;53.590;10.002;2023-07-13T12:44:24;7.53;;;2.58;;
17345;SDS011;8790;53.590;10.002;2023-07-13T12:47:02;4.07;;;2.53;;
17345;SDS011;8790;53.590;10.002;2023-07-13T12:49:41;5.68;;;2.90;;
17345;SDS011;8790;53.590;10.002;2023-07-13T12:52:16;3.85;;;2.85;;
17345;SDS011;8790;53.590;10.002;2023-07-13T12:54:54;4.82;;;3.05;;
17345;SDS011;8790;53.590;10.002;2023-07-13T12:57:27;6.13;;;2.95;;
17345;SDS011;8790;53.590;10.002;2023-07-13T12:59:59;3.90;;;2.72;;
17345;SDS011;8790;53.590;10.002;2023-07-13T13:02:34;3.25;;;2.63;;
17345;SDS011;8790;53.590;10.002;2023-07-13T13:05:06;4.50;;;2.90;;
17345;SDS011;8790;53.590;10.002;2023-07-13T13:07:45;4.15;;;2.60;;
17345;SDS011;8790;53.590;10.002;2023-07-13T13:10:17;5.28;;;2.60;;
17345;SDS011;8790;53.590;10.002;2023-07-13T13:12:49;4.25;;;2.40;;
17345;SDS011;8790;53.590;10.002;2023-07-13T13:15:22;3.35;;;2.38;;
17345;SDS011;8790;53.590;10.002;2023-07-13T13:17:54;2.80;;;2.10;;
17345;SDS011;8790;53.590;10.002;2023-07-13T13:20:25;4.18;;;1.95;;
17345;SDS011;8790;53.590;10.002;2023-07-13T13:22:58;3.60;;;2.10;;
17345;SDS011;8790;53.590;10.002;2023-07-13T13:25:30;3.00;;;2.20;;
17345;SDS011;8790;53.590;10.002;2023-07-13T13:28:02;4.13;;;1.98;;
17345;SDS011;8790;53.590;10.002;2023-07-13T13:30:34;2.67;;;2.30;;
17345;SDS011;8790;53.590;10.002;2023-07-13T13:33:07;4.50;;;2.17;;
17345;SDS011;8790;53.590;10.002;2023-07-13T13:35:42;4.07;;;2.08;;
17345;SDS011;8790;53.590;10.002;2023-07-13T13:38:15;5.10;;;2.25;;
17345;SDS011;8790;53.590;10.002;2023-07-13T13:40:50;3.13;;;2.58;;
17345;SDS011;8790;53.590;10.002;2023-07-13T13:43:22;3.53;;;2.13;;
17345;SDS011;8790;53.590;10.002;2023-07-13T13:45:57;4.88;;;2.47;;
17345;SDS011;8790;53.590;10.002;2023-07-13T13:48:32;3.35;;;2.67;;
17345;SDS011;8790;53.590;10.002;2023-07-13T13:51:06;3.15;;;2.30;;
17345;SDS011;8790;53.590;10.002;2023-07-13T13:53:46;3.35;;;2.25;;
17345;SDS011;8790;53.590;10.002;2023-07-13T13:56:19;2.38;;;2.17;;
17345;SDS011;8790;53.590;10.002;2023-07-13T13:58:51;2.38;;;2.17;;
17345;SDS011;8790;53.590;10.002;2023-07-13T14:01:23;3.45;;;2.47;;
17345;SDS011;8790;53.590;10.002;2023-07-13T14:03:55;4.38;;;2.42;;
17345;SDS011;8790;53.590;10.002;2023-07-13T14:06:27;4.55;;;2.13;;
17345;SDS011;8790;53.590;10.002;2023-07-13T14:09:00;3.42;;;2.33;;
17345;SDS011;8790;53.590;10.002;2023-07-13T14:11:33;4.72;;;2.33;;
17345;SDS011;8790;53.590;10.002;2023-07-13T14:14:05;4.78;;;2.17;;
17345;SDS011;8790;53.590;10.002;2023-07-13T14:16:41;3.17;;;2.40;;
17345;SDS011;8790;53.590;10.002;2023-07-13T14:19:14;2.10;;;1.75;;
17345;SDS011;8790;53.590;10.002;2023-07-13T14:21:45;3.47;;;2.15;;
17345;SDS011;8790;53.590;10.002;2023-07-13T14:24:20;4.25;;;2.40;;
17345;SDS011;8790;53.590;10.002;2023-07-13T14:26:53;3.47;;;2.10;;
17345;SDS011;8790;53.590;10.002;2023-07-13T14:29:24;2.80;;;2.45;;
17345;SDS011;8790;53.590;10.002;2023-07-13T14:31:56;3.30;;;2.28;;
17345;SDS011;8790;53.590;10.002;2023-07-13T14:34:28;2.95;;;2.33;;
17345;SDS011;8790;53.590;10.002;2023-07-13T14:37:00;3.08;;;2.60;;
17345;SDS011;8790;53.590;10.002;2023-07-13T14:39:33;3.60;;;2.42;;
17345;SDS011;8790;53.590;10.002;2023-07-13T14:42:04;4.28;;;2.47;;
17345;SDS011;8790;53.590;10.002;2023-07-13T14:44:37;4.70;;;2.70;;
17345;SDS011;8790;53.590;10.002;2023-07-13T14:47:09;3.80;;;2.30;;
17345;SDS011;8790;53.590;10.002;2023-07-13T14:49:42;5.47;;;2.50;;
17345;SDS011;8790;53.590;10.002;2023-07-13T14:52:15;4.00;;;2.30;;
17345;SDS011;8790;53.590;10.002;2023-07-13T14:54:51;3.28;;;2.45;;
17345;SDS011;8790;53.590;10.002;2023-07-13T14:57:23;4.55;;;2.35;;
17345;SDS011;8790;53.590;10.002;2023-07-13T14:59:55;6.15;;;2.35;;
17345;SDS011;8790;53.590;10.002;2023-07-13T15:02:28;5.00;;;2.35;;
17345;SDS011;8790;53.590;10.002;2023-07-13T15:05:05;3.70;;;2.50;;
17345;SDS011;8790;53.590;10.002;2023-07-13T15:07:44;3.38;;;2.33;;
17345;SDS011;8790;53.590;10.002;2023-07-13T15:10:32;4.28;;;2.47;;
17345;SDS011;8790;53.590;10.002;2023-07-13T15:13:13;3.17;;;2.40;;
17345;SDS011;8790;53.590;10.002;2023-07-13T15:15:46;2.65;;;2.45;;
17345;SDS011;8790;53.590;10.002;2023-07-13T15:18:19;5.75;;;2.50;;
17345;SDS011;8790;53.590;10.002;2023-07-13T15:20:53;3.55;;;2.65;;
17345;SDS011;8790;53.590;10.002;2023-07-13T15:23:26;4.50;;;2.70;;
17345;SDS011;8790;53.590;10.002;2023-07-13T15:25:59;3.33;;;2.78;;
17345;SDS011;8790;53.590;10.002;2023-07-13T15:28:30;4.32;;;2.60;;
17345;SDS011;8790;53.590;10.002;2023-07-13T15:31:04;4.25;;;2.50;;
17345;SDS011;8790;53.590;10.002;2023-07-13T15:33:48;4.90;;;2.70;;
17345;SDS011;8790;53.590;10.002;2023-07-13T15:36:21;4.35;;;2.53;;
17345;SDS011;8790;53.590;10.002;2023-07-13T15:38:55;4.00;;;2.65;;